sensor_id;sensor_type;location;lat;lon;timestamp;P1;durP1;ratioP1;P2;durP2;ratioP2
67757;SDS011;54562;47.620;18.786;2023-03-01T00:02:39;20.40;;;11.40;;
67757;SDS011;54562;47.620;18.786;2023-03-01T00:05:47;22.00;;;11.10;;
67757;SDS011;54562;47.620;18.786;2023-03-01T00:08:56;19.00;;;11.10;;
67757;SDS011;54562;47.620;18.786;2023-03-01T00:12:04;21.90;;;11.30;;
67757;SDS011;54562;47.620;18.786;2023-03-01T00:15:13;23.00;;;11.50;;
67757;SDS011;54562;47.620;18.786;2023-03-01T00:18:21;20.00;;;12.00;;
67757;SDS011;54562;47.620;18.786;2023-03-01T00:21:30;19.40;;;11.20;;
67757;SDS011;54562;47.620;18.786;2023-03-01T00:24:38;20.70;;;11.30;;
67757;SDS011;54562;47.620;18.786;2023-03-01T00:27:48;23.10;;;12.10;;
67757;SDS011;54562;47.620;18.786;2023-03-01T00:30:56;22.10;;;12.00;;
67757;SDS011;54562;47.620;18.786;2023-03-01T00:34:08;25.20;;;12.70;;
67757;SDS011;54562;47.620;18.786;2023-03-01T00:37:17;21.40;;;11.80;;
67757;SDS011;54562;47.620;18.786;2023-03-01T00:40:25;21.40;;;12.00;;
67757;SDS011;54562;47.620;18.786;2023-03-01T00:43:34;21.20;;;11.40;;
67757;SDS011;54562;47.620;18.786;2023-03-01T00:46:42;24.10;;;12.60;;
67757;SDS011;54562;47.620;18.786;2023-03-01T00:49:50;30.30;;;14.10;;
67757;SDS011;54562;47.620;18.786;2023-03-01T00:52:58;27.10;;;14.40;;
67757;SDS011;54562;47.620;18.786;2023-03-01T00:56:08;31.10;;;15.10;;
67757;SDS011;54562;47.620;18.786;2023-03-01T00:59:17;27.70;;;14.40;;
67757;SDS011;54562;47.620;18.786;2023-03-01T01:02:25;24.00;;;12.00;;
67757;SDS011;54562;47.620;18.786;2023-03-01T01:05:35;23.40;;;12.30;;
67757;SDS011;54562;47.620;18.786;2023-03-01T01:11:50;21.70;;;11.90;;
67757;SDS011;54562;47.620;18.786;2023-03-01T01:14:58;21.80;;;12.00;;
67757;SDS011;54562;47.620;18.786;2023-03-01T01:18:06;23.80;;;12.50;;
67757;SDS011;54562;47.620;18.786;2023-03-01T01:21:16;25.70;;;11.90;;
67757;SDS011;54562;47.620;18.786;2023-03-01T01:24:26;21.50;;;11.40;;
67757;SDS011;54562;47.620;18.786;2023-03-01T01:27:34;22.50;;;11.60;;
67757;SDS011;54562;47.620;18.786;2023-03-01T01:30:43;25.30;;;11.50;;
67757;SDS011;54562;47.620;18.786;2023-03-01T01:33:52;20.40;;;11.00;;
67757;SDS011;54562;47.620;18.786;2023-03-01T01:37:00;19.60;;;9.90;;
67757;SDS011;54562;47.620;18.786;2023-03-01T01:40:14;20.00;;;9.80;;
67757;SDS011;54562;47.620;18.786;2023-03-01T01:43:24;17.90;;;10.30;;
67757;SDS011;54562;47.620;18.786;2023-03-01T01:46:37;20.40;;;10.00;;
67757;SDS011;54562;47.620;18.786;2023-03-01T01:49:48;16.10;;;7.90;;
67757;SDS011;54562;47.620;18.786;2023-03-01T01:52:57;17.70;;;9.10;;
67757;SDS011;54562;47.620;18.786;2023-03-01T01:56:08;15.70;;;8.30;;
67757;SDS011;54562;47.620;18.786;2023-03-01T01:59:18;14.90;;;8.50;;
67757;SDS011;54562;47.620;18.786;2023-03-01T02:02:29;16.40;;;9.50;;
67757;SDS011;54562;47.620;18.786;2023-03-01T02:05:40;19.30;;;10.30;;
67757;SDS011;54562;47.620;18.786;2023-03-01T02:09:02;18.00;;;9.60;;
67757;SDS011;54562;47.620;18.786;2023-03-01T02:12:14;18.80;;;10.30;;
67757;SDS011;54562;47.620;18.786;2023-03-01T02:15:23;19.80;;;10.10;;
67757;SDS011;54562;47.620;18.786;2023-03-01T02:18:32;17.20;;;9.70;;
67757;SDS011;54562;47.620;18.786;2023-03-01T02:21:45;17.50;;;9.30;;
67757;SDS011;54562;47.620;18.786;2023-03-01T02:25:10;18.70;;;8.70;;
67757;SDS011;54562;47.620;18.786;2023-03-01T02:28:31;14.90;;;8.10;;
67757;SDS011;54562;47.620;18.786;2023-03-01T02:31:40;17.10;;;8.30;;
67757;SDS011;54562;47.620;18.786;2023-03-01T02:34:48;15.40;;;8.80;;
67757;SDS011;54562;47.620;18.786;2023-03-01T02:37:56;15.60;;;7.90;;
67757;SDS011;54562;47.620;18.786;2023-03-01T02:41:08;15.10;;;8.70;;
67757;SDS011;54562;47.620;18.786;2023-03-01T02:44:17;17.20;;;8.80;;
67757;SDS011;54562;47.620;18.786;2023-03-01T02:47:26;16.40;;;8.90;;
67757;SDS011;54562;47.620;18.786;2023-03-01T02:50:51;15.30;;;7.70;;
67757;SDS011;54562;47.620;18.786;2023-03-01T02:54:15;15.30;;;8.10;;
67757;SDS011;54562;47.620;18.786;2023-03-01T02:57:31;17.40;;;8.80;;
67757;SDS011;54562;47.620;18.786;2023-03-01T03:00:42;14.00;;;8.00;;
67757;SDS011;54562;47.620;18.786;2023-03-01T03:03:51;15.60;;;8.40;;
67757;SDS011;54562;47.620;18.786;2023-03-01T03:07:00;17.90;;;8.50;;
67757;SDS011;54562;47.620;18.786;2023-03-01T03:10:12;16.90;;;9.20;;
67757;SDS011;54562;47.620;18.786;2023-03-01T03:13:24;14.70;;;8.30;;
67757;SDS011;54562;47.620;18.786;2023-03-01T03:16:33;17.00;;;8.90;;
67757;SDS011;54562;47.620;18.786;2023-03-01T03:19:40;15.60;;;8.30;;
67757;SDS011;54562;47.620;18.786;2023-03-01T03:22:51;15.80;;;8.10;;
67757;SDS011;54562;47.620;18.786;2023-03-01T03:26:01;14.70;;;8.10;;
67757;SDS011;54562;47.620;18.786;2023-03-01T03:29:10;16.90;;;8.80;;
67757;SDS011;54562;47.620;18.786;2023-03-01T03:32:18;16.30;;;8.70;;
67757;SDS011;54562;47.620;18.786;2023-03-01T03:35:27;16.70;;;9.00;;
67757;SDS011;54562;47.620;18.786;2023-03-01T03:38:37;14.40;;;7.30;;
67757;SDS011;54562;47.620;18.786;2023-03-01T03:41:45;14.90;;;8.30;;
67757;SDS011;54562;47.620;18.786;2023-03-01T03:44:53;12.90;;;7.60;;
67757;SDS011;54562;47.620;18.786;2023-03-01T03:48:02;11.90;;;7.30;;
67757;SDS011;54562;47.620;18.786;2023-03-01T03:51:13;15.20;;;8.50;;
67757;SDS011;54562;47.620;18.786;2023-03-01T03:54:22;14.20;;;7.30;;
67757;SDS011;54562;47.620;18.786;2023-03-01T03:57:30;15.70;;;8.10;;
67757;SDS011;54562;47.620;18.786;2023-03-01T04:00:40;14.70;;;7.90;;
67757;SDS011;54562;47.620;18.786;2023-03-01T04:03:49;15.00;;;8.00;;
67757;SDS011;54562;47.620;18.786;2023-03-01T04:06:59;16.50;;;7.40;;
67757;SDS011;54562;47.620;18.786;2023-03-01T04:10:13;14.50;;;7.40;;
67757;SDS011;54562;47.620;18.786;2023-03-01T04:13:23;12.70;;;7.40;;
67757;SDS011;54562;47.620;18.786;2023-03-01T04:16:31;13.80;;;7.30;;
67757;SDS011;54562;47.620;18.786;2023-03-01T04:19:39;14.00;;;7.40;;
67757;SDS011;54562;47.620;18.786;2023-03-01T04:22:48;13.60;;;6.60;;
67757;SDS011;54562;47.620;18.786;2023-03-01T04:25:58;14.20;;;7.10;;
67757;SDS011;54562;47.620;18.786;2023-03-01T04:29:06;13.40;;;7.30;;
67757;SDS011;54562;47.620;18.786;2023-03-01T04:32:14;15.00;;;7.70;;
67757;SDS011;54562;47.620;18.786;2023-03-01T04:35:23;13.30;;;7.70;;
67757;SDS011;54562;47.620;18.786;2023-03-01T04:38:32;13.70;;;8.00;;
67757;SDS011;54562;47.620;18.786;2023-03-01T04:41:42;14.50;;;8.20;;
67757;SDS011;54562;47.620;18.786;2023-03-01T04:44:50;15.70;;;8.50;;
67757;SDS011;54562;47.620;18.786;2023-03-01T04:47:59;13.80;;;7.50;;
67757;SDS011;54562;47.620;18.786;2023-03-01T04:51:07;14.80;;;7.40;;
67757;SDS011;54562;47.620;18.786;2023-03-01T04:54:18;12.20;;;7.20;;
67757;SDS011;54562;47.620;18.786;2023-03-01T04:57:26;16.60;;;7.90;;
67757;SDS011;54562;47.620;18.786;2023-03-01T05:00:35;14.10;;;7.80;;
67757;SDS011;54562;47.620;18.786;2023-03-01T05:03:45;14.80;;;7.80;;
67757;SDS011;54562;47.620;18.786;2023-03-01T05:06:55;16.20;;;7.20;;
67757;SDS011;54562;47.620;18.786;2023-03-01T05:10:06;14.60;;;7.10;;
67757;SDS011;54562;47.620;18.786;2023-03-01T05:13:15;16.30;;;7.70;;
67757;SDS011;54562;47.620;18.786;2023-03-01T05:16:26;15.60;;;8.00;;
67757;SDS011;54562;47.620;18.786;2023-03-01T05:19:38;15.10;;;7.80;;
67757;SDS011;54562;47.620;18.786;2023-03-01T05:22:47;15.50;;;8.30;;
67757;SDS011;54562;47.620;18.786;2023-03-01T05:25:59;16.10;;;8.60;;
67757;SDS011;54562;47.620;18.786;2023-03-01T05:29:11;13.80;;;7.60;;
67757;SDS011;54562;47.620;18.786;2023-03-01T05:32:19;13.40;;;7.30;;
67757;SDS011;54562;47.620;18.786;2023-03-01T05:35:27;13.30;;;7.30;;
67757;SDS011;54562;47.620;18.786;2023-03-01T05:38:38;15.50;;;8.20;;
67757;SDS011;54562;47.620;18.786;2023-03-01T05:41:46;13.40;;;7.20;;
67757;SDS011;54562;47.620;18.786;2023-03-01T05:44:54;16.40;;;7.70;;
67757;SDS011;54562;47.620;18.786;2023-03-01T05:48:02;12.30;;;6.70;;
67757;SDS011;54562;47.620;18.786;2023-03-01T05:51:11;14.60;;;8.20;;
67757;SDS011;54562;47.620;18.786;2023-03-01T05:54:20;13.40;;;7.30;;
67757;SDS011;54562;47.620;18.786;2023-03-01T05:57:30;14.10;;;7.20;;
67757;SDS011;54562;47.620;18.786;2023-03-01T06:00:39;13.80;;;7.30;;
67757;SDS011;54562;47.620;18.786;2023-03-01T06:03:47;15.10;;;7.70;;
67757;SDS011;54562;47.620;18.786;2023-03-01T06:06:55;16.20;;;8.50;;
67757;SDS011;54562;47.620;18.786;2023-03-01T06:10:05;15.20;;;8.50;;
67757;SDS011;54562;47.620;18.786;2023-03-01T06:13:15;17.60;;;8.50;;
67757;SDS011;54562;47.620;18.786;2023-03-01T06:16:23;16.40;;;8.90;;
67757;SDS011;54562;47.620;18.786;2023-03-01T06:19:31;17.50;;;9.10;;
67757;SDS011;54562;47.620;18.786;2023-03-01T06:22:39;19.60;;;9.10;;
67757;SDS011;54562;47.620;18.786;2023-03-01T06:25:48;19.40;;;10.30;;
67757;SDS011;54562;47.620;18.786;2023-03-01T06:28:56;19.10;;;9.80;;
67757;SDS011;54562;47.620;18.786;2023-03-01T06:32:05;17.20;;;10.00;;
67757;SDS011;54562;47.620;18.786;2023-03-01T06:35:16;18.30;;;9.50;;
67757;SDS011;54562;47.620;18.786;2023-03-01T06:38:24;20.20;;;10.20;;
67757;SDS011;54562;47.620;18.786;2023-03-01T06:41:32;20.80;;;10.10;;
67757;SDS011;54562;47.620;18.786;2023-03-01T06:44:43;18.20;;;9.70;;
67757;SDS011;54562;47.620;18.786;2023-03-01T06:47:52;19.70;;;10.10;;
67757;SDS011;54562;47.620;18.786;2023-03-01T06:51:07;19.40;;;9.90;;
67757;SDS011;54562;47.620;18.786;2023-03-01T06:54:15;18.30;;;10.40;;
67757;SDS011;54562;47.620;18.786;2023-03-01T06:57:23;24.70;;;10.90;;
67757;SDS011;54562;47.620;18.786;2023-03-01T07:00:32;22.80;;;12.00;;
67757;SDS011;54562;47.620;18.786;2023-03-01T07:03:40;19.20;;;10.70;;
67757;SDS011;54562;47.620;18.786;2023-03-01T07:06:49;24.20;;;10.90;;
67757;SDS011;54562;47.620;18.786;2023-03-01T07:10:00;25.40;;;12.20;;
67757;SDS011;54562;47.620;18.786;2023-03-01T07:13:09;18.60;;;10.60;;
67757;SDS011;54562;47.620;18.786;2023-03-01T07:16:16;19.90;;;10.60;;
67757;SDS011;54562;47.620;18.786;2023-03-01T07:19:25;19.50;;;11.00;;
67757;SDS011;54562;47.620;18.786;2023-03-01T07:22:33;22.00;;;11.50;;
67757;SDS011;54562;47.620;18.786;2023-03-01T07:25:41;15.70;;;8.20;;
67757;SDS011;54562;47.620;18.786;2023-03-01T07:28:49;15.80;;;8.40;;
67757;SDS011;54562;47.620;18.786;2023-03-01T07:31:59;14.40;;;7.90;;
67757;SDS011;54562;47.620;18.786;2023-03-01T07:38:15;11.50;;;6.50;;
67757;SDS011;54562;47.620;18.786;2023-03-01T07:41:23;14.00;;;7.70;;
67757;SDS011;54562;47.620;18.786;2023-03-01T07:44:31;14.40;;;7.90;;
67757;SDS011;54562;47.620;18.786;2023-03-01T07:47:39;13.50;;;7.20;;
67757;SDS011;54562;47.620;18.786;2023-03-01T07:50:47;15.40;;;7.70;;
67757;SDS011;54562;47.620;18.786;2023-03-01T07:53:55;13.20;;;7.20;;
67757;SDS011;54562;47.620;18.786;2023-03-01T07:57:04;15.30;;;7.30;;
67757;SDS011;54562;47.620;18.786;2023-03-01T08:00:14;14.40;;;6.70;;
67757;SDS011;54562;47.620;18.786;2023-03-01T08:03:22;16.20;;;7.70;;
67757;SDS011;54562;47.620;18.786;2023-03-01T08:06:30;14.60;;;6.90;;
67757;SDS011;54562;47.620;18.786;2023-03-01T08:09:40;13.30;;;6.60;;
67757;SDS011;54562;47.620;18.786;2023-03-01T08:12:48;13.20;;;7.00;;
67757;SDS011;54562;47.620;18.786;2023-03-01T08:16:03;13.90;;;7.20;;
67757;SDS011;54562;47.620;18.786;2023-03-01T08:19:13;15.30;;;7.40;;
67757;SDS011;54562;47.620;18.786;2023-03-01T08:22:21;13.50;;;7.40;;
67757;SDS011;54562;47.620;18.786;2023-03-01T08:25:29;13.90;;;7.60;;
67757;SDS011;54562;47.620;18.786;2023-03-01T08:28:37;12.40;;;6.60;;
67757;SDS011;54562;47.620;18.786;2023-03-01T08:31:46;14.80;;;7.10;;
67757;SDS011;54562;47.620;18.786;2023-03-01T08:34:54;12.60;;;6.50;;
67757;SDS011;54562;47.620;18.786;2023-03-01T08:38:02;13.80;;;6.70;;
67757;SDS011;54562;47.620;18.786;2023-03-01T08:41:11;13.40;;;7.50;;
67757;SDS011;54562;47.620;18.786;2023-03-01T08:44:19;11.80;;;5.50;;
67757;SDS011;54562;47.620;18.786;2023-03-01T08:47:28;13.00;;;6.70;;
67757;SDS011;54562;47.620;18.786;2023-03-01T08:50:36;12.20;;;6.60;;
67757;SDS011;54562;47.620;18.786;2023-03-01T08:53:48;10.40;;;5.20;;
67757;SDS011;54562;47.620;18.786;2023-03-01T08:56:56;13.10;;;6.60;;
67757;SDS011;54562;47.620;18.786;2023-03-01T09:00:06;11.40;;;6.00;;
67757;SDS011;54562;47.620;18.786;2023-03-01T09:03:19;13.60;;;7.40;;
67757;SDS011;54562;47.620;18.786;2023-03-01T09:06:27;14.70;;;6.70;;
67757;SDS011;54562;47.620;18.786;2023-03-01T09:09:39;11.40;;;6.40;;
67757;SDS011;54562;47.620;18.786;2023-03-01T09:12:47;11.70;;;6.50;;
67757;SDS011;54562;47.620;18.786;2023-03-01T09:15:55;12.10;;;6.40;;
67757;SDS011;54562;47.620;18.786;2023-03-01T09:19:04;11.50;;;6.40;;
67757;SDS011;54562;47.620;18.786;2023-03-01T09:22:12;16.40;;;7.50;;
67757;SDS011;54562;47.620;18.786;2023-03-01T09:25:20;15.60;;;7.20;;
67757;SDS011;54562;47.620;18.786;2023-03-01T09:28:29;13.10;;;6.60;;
67757;SDS011;54562;47.620;18.786;2023-03-01T09:31:37;10.70;;;5.80;;
67757;SDS011;54562;47.620;18.786;2023-03-01T09:34:45;13.50;;;7.20;;
67757;SDS011;54562;47.620;18.786;2023-03-01T09:38:12;12.00;;;6.60;;
67757;SDS011;54562;47.620;18.786;2023-03-01T09:41:42;12.90;;;6.70;;
67757;SDS011;54562;47.620;18.786;2023-03-01T09:44:55;11.80;;;6.80;;
67757;SDS011;54562;47.620;18.786;2023-03-01T09:48:15;12.30;;;7.00;;
67757;SDS011;54562;47.620;18.786;2023-03-01T09:51:29;12.50;;;7.30;;
67757;SDS011;54562;47.620;18.786;2023-03-01T09:54:39;14.60;;;7.10;;
67757;SDS011;54562;47.620;18.786;2023-03-01T09:57:50;17.10;;;7.20;;
67757;SDS011;54562;47.620;18.786;2023-03-01T10:01:06;12.80;;;6.90;;
67757;SDS011;54562;47.620;18.786;2023-03-01T10:04:41;11.20;;;6.20;;
67757;SDS011;54562;47.620;18.786;2023-03-01T10:08:04;11.50;;;6.30;;
67757;SDS011;54562;47.620;18.786;2023-03-01T10:11:32;11.00;;;6.20;;
67757;SDS011;54562;47.620;18.786;2023-03-01T10:14:47;11.10;;;5.50;;
67757;SDS011;54562;47.620;18.786;2023-03-01T10:18:04;11.30;;;5.90;;
67757;SDS011;54562;47.620;18.786;2023-03-01T10:21:18;10.70;;;5.70;;
67757;SDS011;54562;47.620;18.786;2023-03-01T10:24:28;9.40;;;4.80;;
67757;SDS011;54562;47.620;18.786;2023-03-01T10:27:49;11.20;;;5.60;;
67757;SDS011;54562;47.620;18.786;2023-03-01T10:31:00;10.50;;;5.30;;
67757;SDS011;54562;47.620;18.786;2023-03-01T10:34:15;9.20;;;5.10;;
67757;SDS011;54562;47.620;18.786;2023-03-01T10:37:25;10.30;;;5.50;;
67757;SDS011;54562;47.620;18.786;2023-03-01T10:40:35;9.50;;;5.00;;
67757;SDS011;54562;47.620;18.786;2023-03-01T10:43:59;9.20;;;5.20;;
67757;SDS011;54562;47.620;18.786;2023-03-01T10:50:22;10.10;;;5.10;;
67757;SDS011;54562;47.620;18.786;2023-03-01T10:53:34;7.90;;;4.70;;
67757;SDS011;54562;47.620;18.786;2023-03-01T10:56:55;8.90;;;5.00;;
67757;SDS011;54562;47.620;18.786;2023-03-01T11:00:19;9.70;;;5.10;;
67757;SDS011;54562;47.620;18.786;2023-03-01T11:03:31;10.10;;;5.30;;
67757;SDS011;54562;47.620;18.786;2023-03-01T11:06:41;9.70;;;5.10;;
67757;SDS011;54562;47.620;18.786;2023-03-01T11:09:49;9.80;;;5.20;;
67757;SDS011;54562;47.620;18.786;2023-03-01T11:13:13;8.90;;;4.30;;
67757;SDS011;54562;47.620;18.786;2023-03-01T11:16:32;8.30;;;4.70;;
67757;SDS011;54562;47.620;18.786;2023-03-01T11:19:42;8.80;;;4.40;;
67757;SDS011;54562;47.620;18.786;2023-03-01T11:23:12;8.60;;;4.30;;
67757;SDS011;54562;47.620;18.786;2023-03-01T11:26:22;9.00;;;4.70;;
67757;SDS011;54562;47.620;18.786;2023-03-01T11:29:35;8.20;;;4.40;;
67757;SDS011;54562;47.620;18.786;2023-03-01T11:33:01;8.60;;;4.20;;
67757;SDS011;54562;47.620;18.786;2023-03-01T11:36:24;11.00;;;4.80;;
67757;SDS011;54562;47.620;18.786;2023-03-01T11:43:02;8.00;;;4.30;;
67757;SDS011;54562;47.620;18.786;2023-03-01T11:46:45;9.00;;;4.90;;
67757;SDS011;54562;47.620;18.786;2023-03-01T11:50:19;9.20;;;5.00;;
67757;SDS011;54562;47.620;18.786;2023-03-01T11:53:53;8.80;;;5.00;;
67757;SDS011;54562;47.620;18.786;2023-03-01T11:57:17;8.90;;;4.40;;
67757;SDS011;54562;47.620;18.786;2023-03-01T12:01:02;9.20;;;4.90;;
67757;SDS011;54562;47.620;18.786;2023-03-01T12:08:19;7.90;;;4.50;;
67757;SDS011;54562;47.620;18.786;2023-03-01T12:11:47;8.30;;;4.80;;
67757;SDS011;54562;47.620;18.786;2023-03-01T12:15:39;10.60;;;4.90;;
67757;SDS011;54562;47.620;18.786;2023-03-01T12:23:07;10.00;;;5.20;;
67757;SDS011;54562;47.620;18.786;2023-03-01T12:26:34;9.90;;;4.90;;
67757;SDS011;54562;47.620;18.786;2023-03-01T12:29:54;9.90;;;5.00;;
67757;SDS011;54562;47.620;18.786;2023-03-01T12:33:21;10.50;;;5.60;;
67757;SDS011;54562;47.620;18.786;2023-03-01T12:36:58;12.40;;;6.30;;
67757;SDS011;54562;47.620;18.786;2023-03-01T12:44:23;10.20;;;5.70;;
67757;SDS011;54562;47.620;18.786;2023-03-01T12:51:26;11.00;;;6.20;;
67757;SDS011;54562;47.620;18.786;2023-03-01T12:54:38;11.70;;;6.30;;
67757;SDS011;54562;47.620;18.786;2023-03-01T12:57:51;10.40;;;6.40;;
67757;SDS011;54562;47.620;18.786;2023-03-01T13:01:16;12.10;;;6.50;;
67757;SDS011;54562;47.620;18.786;2023-03-01T13:04:37;12.60;;;6.30;;
67757;SDS011;54562;47.620;18.786;2023-03-01T13:08:01;11.80;;;6.40;;
67757;SDS011;54562;47.620;18.786;2023-03-01T13:11:20;11.90;;;6.60;;
67757;SDS011;54562;47.620;18.786;2023-03-01T13:14:48;11.50;;;6.30;;
67757;SDS011;54562;47.620;18.786;2023-03-01T13:18:01;12.10;;;6.40;;
67757;SDS011;54562;47.620;18.786;2023-03-01T13:21:33;11.90;;;7.10;;
67757;SDS011;54562;47.620;18.786;2023-03-01T13:24:42;11.40;;;6.70;;
67757;SDS011;54562;47.620;18.786;2023-03-01T13:27:50;15.00;;;6.70;;
67757;SDS011;54562;47.620;18.786;2023-03-01T13:35:43;11.40;;;6.30;;
67757;SDS011;54562;47.620;18.786;2023-03-01T13:38:58;11.90;;;6.30;;
67757;SDS011;54562;47.620;18.786;2023-03-01T13:42:36;11.80;;;6.50;;
67757;SDS011;54562;47.620;18.786;2023-03-01T13:45:47;12.30;;;6.80;;
67757;SDS011;54562;47.620;18.786;2023-03-01T13:48:58;10.20;;;6.50;;
67757;SDS011;54562;47.620;18.786;2023-03-01T13:52:13;13.90;;;6.60;;
67757;SDS011;54562;47.620;18.786;2023-03-01T13:55:40;12.20;;;6.40;;
67757;SDS011;54562;47.620;18.786;2023-03-01T13:58:53;11.10;;;5.80;;
67757;SDS011;54562;47.620;18.786;2023-03-01T14:02:13;12.10;;;6.20;;
67757;SDS011;54562;47.620;18.786;2023-03-01T14:05:24;12.90;;;6.10;;
67757;SDS011;54562;47.620;18.786;2023-03-01T14:08:33;13.50;;;6.60;;
67757;SDS011;54562;47.620;18.786;2023-03-01T14:12:03;10.50;;;5.60;;
67757;SDS011;54562;47.620;18.786;2023-03-01T14:15:29;10.60;;;5.80;;
67757;SDS011;54562;47.620;18.786;2023-03-01T14:18:46;9.70;;;5.30;;
67757;SDS011;54562;47.620;18.786;2023-03-01T14:22:07;10.60;;;5.00;;
67757;SDS011;54562;47.620;18.786;2023-03-01T14:25:25;10.80;;;5.90;;
67757;SDS011;54562;47.620;18.786;2023-03-01T14:28:37;11.60;;;6.30;;
67757;SDS011;54562;47.620;18.786;2023-03-01T14:31:48;13.20;;;6.80;;
67757;SDS011;54562;47.620;18.786;2023-03-01T14:34:58;11.70;;;6.90;;
67757;SDS011;54562;47.620;18.786;2023-03-01T14:38:19;11.80;;;6.50;;
67757;SDS011;54562;47.620;18.786;2023-03-01T14:41:29;13.50;;;5.90;;
67757;SDS011;54562;47.620;18.786;2023-03-01T14:44:42;12.50;;;6.00;;
67757;SDS011;54562;47.620;18.786;2023-03-01T14:47:52;11.30;;;6.40;;
67757;SDS011;54562;47.620;18.786;2023-03-01T14:51:02;12.30;;;6.20;;
67757;SDS011;54562;47.620;18.786;2023-03-01T14:54:23;11.20;;;6.50;;
67757;SDS011;54562;47.620;18.786;2023-03-01T14:57:34;12.30;;;6.30;;
67757;SDS011;54562;47.620;18.786;2023-03-01T15:00:49;12.40;;;6.30;;
67757;SDS011;54562;47.620;18.786;2023-03-01T15:04:00;13.20;;;7.10;;
67757;SDS011;54562;47.620;18.786;2023-03-01T15:07:13;11.50;;;7.00;;
67757;SDS011;54562;47.620;18.786;2023-03-01T15:10:25;14.30;;;7.00;;
67757;SDS011;54562;47.620;18.786;2023-03-01T15:13:35;13.70;;;7.30;;
67757;SDS011;54562;47.620;18.786;2023-03-01T15:16:44;14.00;;;7.50;;
67757;SDS011;54562;47.620;18.786;2023-03-01T15:19:54;15.20;;;7.40;;
67757;SDS011;54562;47.620;18.786;2023-03-01T15:23:03;13.30;;;7.70;;
67757;SDS011;54562;47.620;18.786;2023-03-01T15:26:24;15.70;;;6.80;;
67757;SDS011;54562;47.620;18.786;2023-03-01T15:29:35;11.90;;;7.10;;
67757;SDS011;54562;47.620;18.786;2023-03-01T15:32:45;12.10;;;6.80;;
67757;SDS011;54562;47.620;18.786;2023-03-01T15:35:54;12.10;;;6.60;;
67757;SDS011;54562;47.620;18.786;2023-03-01T15:39:04;11.90;;;6.90;;
67757;SDS011;54562;47.620;18.786;2023-03-01T15:42:38;13.00;;;7.10;;
67757;SDS011;54562;47.620;18.786;2023-03-01T15:55:45;13.10;;;6.10;;
67757;SDS011;54562;47.620;18.786;2023-03-01T16:02:11;12.50;;;6.50;;
67757;SDS011;54562;47.620;18.786;2023-03-01T16:05:24;12.00;;;6.70;;
67757;SDS011;54562;47.620;18.786;2023-03-01T16:08:35;12.80;;;6.60;;
67757;SDS011;54562;47.620;18.786;2023-03-01T16:11:43;11.50;;;6.10;;
67757;SDS011;54562;47.620;18.786;2023-03-01T16:14:52;12.20;;;6.80;;
67757;SDS011;54562;47.620;18.786;2023-03-01T16:18:03;12.20;;;6.30;;
67757;SDS011;54562;47.620;18.786;2023-03-01T16:21:21;14.00;;;6.30;;
67757;SDS011;54562;47.620;18.786;2023-03-01T16:24:30;12.60;;;6.30;;
67757;SDS011;54562;47.620;18.786;2023-03-01T16:27:43;13.00;;;6.10;;
67757;SDS011;54562;47.620;18.786;2023-03-01T16:30:53;15.40;;;6.50;;
67757;SDS011;54562;47.620;18.786;2023-03-01T16:34:01;11.10;;;6.30;;
67757;SDS011;54562;47.620;18.786;2023-03-01T16:37:09;12.20;;;6.10;;
67757;SDS011;54562;47.620;18.786;2023-03-01T16:40:20;11.70;;;5.80;;
67757;SDS011;54562;47.620;18.786;2023-03-01T16:43:30;12.40;;;6.00;;
67757;SDS011;54562;47.620;18.786;2023-03-01T16:46:38;11.20;;;6.10;;
67757;SDS011;54562;47.620;18.786;2023-03-01T16:49:53;12.30;;;6.10;;
67757;SDS011;54562;47.620;18.786;2023-03-01T16:53:01;10.50;;;5.90;;
67757;SDS011;54562;47.620;18.786;2023-03-01T16:56:11;13.30;;;7.00;;
67757;SDS011;54562;47.620;18.786;2023-03-01T16:59:20;14.20;;;7.70;;
67757;SDS011;54562;47.620;18.786;2023-03-01T17:02:29;15.50;;;7.80;;
67757;SDS011;54562;47.620;18.786;2023-03-01T17:05:37;13.40;;;7.80;;
67757;SDS011;54562;47.620;18.786;2023-03-01T17:08:47;11.60;;;6.70;;
67757;SDS011;54562;47.620;18.786;2023-03-01T17:11:56;13.50;;;6.70;;
67757;SDS011;54562;47.620;18.786;2023-03-01T17:15:06;14.10;;;6.80;;
67757;SDS011;54562;47.620;18.786;2023-03-01T17:18:16;15.30;;;6.80;;
67757;SDS011;54562;47.620;18.786;2023-03-01T17:21:24;16.40;;;6.80;;
67757;SDS011;54562;47.620;18.786;2023-03-01T17:24:35;12.60;;;6.60;;
67757;SDS011;54562;47.620;18.786;2023-03-01T17:27:43;13.70;;;6.70;;
67757;SDS011;54562;47.620;18.786;2023-03-01T17:30:51;17.60;;;7.90;;
67757;SDS011;54562;47.620;18.786;2023-03-01T17:34:00;14.60;;;6.50;;
67757;SDS011;54562;47.620;18.786;2023-03-01T17:37:08;12.70;;;6.50;;
67757;SDS011;54562;47.620;18.786;2023-03-01T17:40:16;12.20;;;6.50;;
67757;SDS011;54562;47.620;18.786;2023-03-01T17:43:25;11.60;;;6.50;;
67757;SDS011;54562;47.620;18.786;2023-03-01T17:46:32;11.90;;;6.70;;
67757;SDS011;54562;47.620;18.786;2023-03-01T17:49:41;11.80;;;6.40;;
67757;SDS011;54562;47.620;18.786;2023-03-01T17:52:49;16.10;;;7.40;;
67757;SDS011;54562;47.620;18.786;2023-03-01T17:56:02;14.00;;;7.70;;
67757;SDS011;54562;47.620;18.786;2023-03-01T17:59:15;12.30;;;6.60;;
67757;SDS011;54562;47.620;18.786;2023-03-01T18:02:23;11.90;;;6.00;;
67757;SDS011;54562;47.620;18.786;2023-03-01T18:05:35;12.80;;;6.90;;
67757;SDS011;54562;47.620;18.786;2023-03-01T18:08:43;15.00;;;6.70;;
67757;SDS011;54562;47.620;18.786;2023-03-01T18:11:53;12.60;;;6.00;;
67757;SDS011;54562;47.620;18.786;2023-03-01T18:15:01;14.00;;;7.50;;
67757;SDS011;54562;47.620;18.786;2023-03-01T18:18:09;16.40;;;8.40;;
67757;SDS011;54562;47.620;18.786;2023-03-01T18:21:17;13.40;;;7.50;;
67757;SDS011;54562;47.620;18.786;2023-03-01T18:24:27;14.10;;;8.80;;
67757;SDS011;54562;47.620;18.786;2023-03-01T18:27:35;15.60;;;8.30;;
67757;SDS011;54562;47.620;18.786;2023-03-01T18:30:43;15.90;;;8.90;;
67757;SDS011;54562;47.620;18.786;2023-03-01T18:33:55;17.70;;;9.30;;
67757;SDS011;54562;47.620;18.786;2023-03-01T18:37:04;17.50;;;9.90;;
67757;SDS011;54562;47.620;18.786;2023-03-01T18:40:14;19.10;;;9.50;;
67757;SDS011;54562;47.620;18.786;2023-03-01T18:43:22;17.20;;;9.70;;
67757;SDS011;54562;47.620;18.786;2023-03-01T18:46:33;18.80;;;9.50;;
67757;SDS011;54562;47.620;18.786;2023-03-01T18:49:44;16.90;;;10.10;;
67757;SDS011;54562;47.620;18.786;2023-03-01T18:52:52;19.70;;;10.30;;
67757;SDS011;54562;47.620;18.786;2023-03-01T18:56:01;20.20;;;11.30;;
67757;SDS011;54562;47.620;18.786;2023-03-01T18:59:09;19.70;;;10.50;;
67757;SDS011;54562;47.620;18.786;2023-03-01T19:02:18;21.30;;;10.10;;
67757;SDS011;54562;47.620;18.786;2023-03-01T19:05:26;20.30;;;10.80;;
67757;SDS011;54562;47.620;18.786;2023-03-01T19:08:34;17.80;;;8.90;;
67757;SDS011;54562;47.620;18.786;2023-03-01T19:11:44;16.90;;;8.80;;
67757;SDS011;54562;47.620;18.786;2023-03-01T19:14:52;16.10;;;8.60;;
67757;SDS011;54562;47.620;18.786;2023-03-01T19:18:01;17.30;;;8.90;;
67757;SDS011;54562;47.620;18.786;2023-03-01T19:21:10;16.30;;;9.00;;
67757;SDS011;54562;47.620;18.786;2023-03-01T19:24:19;18.10;;;9.60;;
67757;SDS011;54562;47.620;18.786;2023-03-01T19:27:27;23.40;;;12.50;;
67757;SDS011;54562;47.620;18.786;2023-03-01T19:30:35;24.10;;;11.80;;